sensor_id;sensor_type;location;lat;lon;timestamp;P1;durP1;ratioP1;P2;durP2;ratioP2
52796;SDS011;38666;43.348;12.584;2022-07-23T06:56:28;13.18;;;3.63;;
52796;SDS011;38666;43.348;12.584;2022-07-23T06:58:54;8.20;;;3.60;;
52796;SDS011;38666;43.348;12.584;2022-07-23T07:01:19;16.70;;;3.13;;
52796;SDS011;38666;43.348;12.584;2022-07-23T07:03:46;13.82;;;3.63;;
52796;SDS011;38666;43.348;12.584;2022-07-23T07:06:11;11.85;;;3.53;;
52796;SDS011;38666;43.348;12.584;2022-07-23T07:08:37;11.00;;;3.53;;
52796;SDS011;38666;43.348;12.584;2022-07-23T07:11:03;9.17;;;2.83;;
52796;SDS011;38666;43.348;12.584;2022-07-23T07:13:28;9.33;;;3.07;;
52796;SDS011;38666;43.348;12.584;2022-07-23T07:15:53;10.03;;;2.97;;
52796;SDS011;38666;43.348;12.584;2022-07-23T07:18:19;8.23;;;2.90;;
52796;SDS011;38666;43.348;12.584;2022-07-23T07:20:44;8.98;;;2.58;;
52796;SDS011;38666;43.348;12.584;2022-07-23T07:23:10;6.40;;;2.92;;
52796;SDS011;38666;43.348;12.584;2022-07-23T07:25:35;17.10;;;3.53;;
52796;SDS011;38666;43.348;12.584;2022-07-23T07:28:01;6.73;;;2.90;;
52796;SDS011;38666;43.348;12.584;2022-07-23T07:30:27;13.27;;;2.70;;
52796;SDS011;38666;43.348;12.584;2022-07-23T07:32:52;7.82;;;2.83;;
52796;SDS011;38666;43.348;12.584;2022-07-23T07:35:18;9.57;;;2.67;;
52796;SDS011;38666;43.348;12.584;2022-07-23T07:37:43;12.83;;;3.20;;
52796;SDS011;38666;43.348;12.584;2022-07-23T07:40:09;7.40;;;2.90;;
52796;SDS011;38666;43.348;12.584;2022-07-23T07:42:34;13.73;;;3.50;;
52796;SDS011;38666;43.348;12.584;2022-07-23T07:45:08;6.13;;;2.75;;
52796;SDS011;38666;43.348;12.584;2022-07-23T07:47:34;9.48;;;3.33;;
52796;SDS011;38666;43.348;12.584;2022-07-23T07:49:59;12.83;;;3.97;;
52796;SDS011;38666;43.348;12.584;2022-07-23T07:52:25;8.25;;;3.30;;
52796;SDS011;38666;43.348;12.584;2022-07-23T07:54:51;12.10;;;2.85;;
52796;SDS011;38666;43.348;12.584;2022-07-23T07:57:16;9.38;;;2.60;;
52796;SDS011;38666;43.348;12.584;2022-07-23T07:59:42;6.63;;;2.93;;
52796;SDS011;38666;43.348;12.584;2022-07-23T08:02:07;7.73;;;3.10;;
52796;SDS011;38666;43.348;12.584;2022-07-23T08:04:33;13.23;;;2.90;;
52796;SDS011;38666;43.348;12.584;2022-07-23T08:06:58;7.13;;;2.90;;
52796;SDS011;38666;43.348;12.584;2022-07-23T08:09:24;14.03;;;2.90;;
52796;SDS011;38666;43.348;12.584;2022-07-23T08:11:49;7.93;;;3.07;;
52796;SDS011;38666;43.348;12.584;2022-07-23T08:14:16;7.55;;;2.58;;
52796;SDS011;38666;43.348;12.584;2022-07-23T08:16:42;7.43;;;2.70;;
52796;SDS011;38666;43.348;12.584;2022-07-23T08:19:08;16.70;;;2.67;;
52796;SDS011;38666;43.348;12.584;2022-07-23T08:21:33;4.53;;;2.20;;
52796;SDS011;38666;43.348;12.584;2022-07-23T08:23:58;8.70;;;2.70;;
52796;SDS011;38666;43.348;12.584;2022-07-23T08:26:24;6.03;;;2.50;;
52796;SDS011;38666;43.348;12.584;2022-07-23T08:28:49;6.73;;;2.53;;
52796;SDS011;38666;43.348;12.584;2022-07-23T08:31:15;7.27;;;2.67;;
52796;SDS011;38666;43.348;12.584;2022-07-23T08:33:42;12.60;;;2.60;;
52796;SDS011;38666;43.348;12.584;2022-07-23T08:36:07;5.95;;;2.47;;
52796;SDS011;38666;43.348;12.584;2022-07-23T08:38:33;6.50;;;2.50;;
52796;SDS011;38666;43.348;12.584;2022-07-23T08:41:01;6.07;;;2.28;;
52796;SDS011;38666;43.348;12.584;2022-07-23T08:43:31;5.50;;;2.40;;
52796;SDS011;38666;43.348;12.584;2022-07-23T08:45:58;14.70;;;2.78;;
52796;SDS011;38666;43.348;12.584;2022-07-23T08:48:25;8.80;;;2.72;;
52796;SDS011;38666;43.348;12.584;2022-07-23T08:50:53;12.07;;;2.38;;
52796;SDS011;38666;43.348;12.584;2022-07-23T08:53:20;5.18;;;2.20;;
52796;SDS011;38666;43.348;12.584;2022-07-23T08:55:48;5.20;;;2.35;;
52796;SDS011;38666;43.348;12.584;2022-07-23T08:58:16;7.47;;;2.35;;
52796;SDS011;38666;43.348;12.584;2022-07-23T09:00:42;5.55;;;2.10;;
52796;SDS011;38666;43.348;12.584;2022-07-23T09:03:11;6.93;;;1.95;;
52796;SDS011;38666;43.348;12.584;2022-07-23T09:05:41;9.85;;;2.78;;
52796;SDS011;38666;43.348;12.584;2022-07-23T09:08:16;8.17;;;2.30;;
52796;SDS011;38666;43.348;12.584;2022-07-23T09:10:49;8.13;;;1.90;;
52796;SDS011;38666;43.348;12.584;2022-07-23T09:16:11;11.55;;;2.00;;
52796;SDS011;38666;43.348;12.584;2022-07-23T09:21:17;18.98;;;2.88;;
52796;SDS011;38666;43.348;12.584;2022-07-23T09:28:50;6.03;;;2.13;;
52796;SDS011;38666;43.348;12.584;2022-07-23T09:31:18;3.97;;;1.90;;
52796;SDS011;38666;43.348;12.584;2022-07-23T09:33:43;13.33;;;2.30;;
52796;SDS011;38666;43.348;12.584;2022-07-23T09:36:09;20.13;;;2.80;;
52796;SDS011;38666;43.348;12.584;2022-07-23T09:38:34;9.60;;;2.47;;
52796;SDS011;38666;43.348;12.584;2022-07-23T09:41:13;6.47;;;2.40;;
52796;SDS011;38666;43.348;12.584;2022-07-23T09:43:39;4.90;;;2.43;;
52796;SDS011;38666;43.348;12.584;2022-07-23T09:48:48;23.05;;;2.25;;
52796;SDS011;38666;43.348;12.584;2022-07-23T09:51:14;4.90;;;2.30;;
52796;SDS011;38666;43.348;12.584;2022-07-23T09:53:43;4.20;;;1.90;;
52796;SDS011;38666;43.348;12.584;2022-07-23T09:56:09;11.50;;;2.03;;
52796;SDS011;38666;43.348;12.584;2022-07-23T09:58:39;3.78;;;1.90;;
52796;SDS011;38666;43.348;12.584;2022-07-23T10:01:13;7.18;;;1.60;;
52796;SDS011;38666;43.348;12.584;2022-07-23T10:03:40;5.63;;;1.73;;
52796;SDS011;38666;43.348;12.584;2022-07-23T10:06:07;5.60;;;1.60;;
52796;SDS011;38666;43.348;12.584;2022-07-23T10:08:34;4.18;;;1.55;;
52796;SDS011;38666;43.348;12.584;2022-07-23T10:11:00;5.57;;;1.73;;
52796;SDS011;38666;43.348;12.584;2022-07-23T10:13:27;4.00;;;1.90;;
52796;SDS011;38666;43.348;12.584;2022-07-23T10:16:11;6.53;;;2.10;;
52796;SDS011;38666;43.348;12.584;2022-07-23T10:18:37;3.25;;;1.63;;
52796;SDS011;38666;43.348;12.584;2022-07-23T10:21:05;7.20;;;2.07;;
52796;SDS011;38666;43.348;12.584;2022-07-23T10:23:36;4.65;;;1.70;;
52796;SDS011;38666;43.348;12.584;2022-07-23T10:26:12;9.35;;;1.98;;
52796;SDS011;38666;43.348;12.584;2022-07-23T10:34:11;5.13;;;1.70;;
52796;SDS011;38666;43.348;12.584;2022-07-23T10:36:40;7.38;;;1.80;;
52796;SDS011;38666;43.348;12.584;2022-07-23T10:39:17;6.50;;;1.83;;
52796;SDS011;38666;43.348;12.584;2022-07-23T10:41:47;6.03;;;1.90;;
52796;SDS011;38666;43.348;12.584;2022-07-23T10:44:20;8.27;;;2.00;;
52796;SDS011;38666;43.348;12.584;2022-07-23T10:49:32;3.53;;;1.80;;
52796;SDS011;38666;43.348;12.584;2022-07-23T10:57:19;5.20;;;2.15;;
52796;SDS011;38666;43.348;12.584;2022-07-23T11:02:32;7.85;;;2.03;;
52796;SDS011;38666;43.348;12.584;2022-07-23T11:05:08;7.57;;;2.08;;
52796;SDS011;38666;43.348;12.584;2022-07-23T11:07:35;12.50;;;2.58;;
52796;SDS011;38666;43.348;12.584;2022-07-23T11:10:02;10.65;;;2.47;;
52796;SDS011;38666;43.348;12.584;2022-07-23T11:15:10;11.05;;;2.25;;
52796;SDS011;38666;43.348;12.584;2022-07-23T11:22:38;6.22;;;2.40;;
52796;SDS011;38666;43.348;12.584;2022-07-23T11:25:04;5.47;;;2.20;;
52796;SDS011;38666;43.348;12.584;2022-07-23T11:27:42;14.55;;;2.42;;
52796;SDS011;38666;43.348;12.584;2022-07-23T11:30:10;8.57;;;2.90;;
52796;SDS011;38666;43.348;12.584;2022-07-23T11:35:37;13.38;;;2.10;;
52796;SDS011;38666;43.348;12.584;2022-07-23T11:38:14;17.83;;;2.40;;
52796;SDS011;38666;43.348;12.584;2022-07-23T11:40:45;11.65;;;2.50;;
52796;SDS011;38666;43.348;12.584;2022-07-23T11:43:12;10.98;;;2.25;;
52796;SDS011;38666;43.348;12.584;2022-07-23T11:45:42;31.35;;;2.65;;
52796;SDS011;38666;43.348;12.584;2022-07-23T11:48:23;7.32;;;2.88;;
52796;SDS011;38666;43.348;12.584;2022-07-23T11:50:51;7.13;;;2.07;;
52796;SDS011;38666;43.348;12.584;2022-07-23T11:53:24;7.88;;;2.10;;
52796;SDS011;38666;43.348;12.584;2022-07-23T11:55:53;6.78;;;2.30;;
52796;SDS011;38666;43.348;12.584;2022-07-23T11:58:20;7.90;;;2.38;;
52796;SDS011;38666;43.348;12.584;2022-07-23T12:00:46;4.22;;;1.63;;
52796;SDS011;38666;43.348;12.584;2022-07-23T12:03:11;8.50;;;2.13;;
52796;SDS011;38666;43.348;12.584;2022-07-23T12:05:37;9.67;;;1.70;;
52796;SDS011;38666;43.348;12.584;2022-07-23T12:08:04;5.43;;;1.63;;
52796;SDS011;38666;43.348;12.584;2022-07-23T12:10:35;16.75;;;2.17;;
52796;SDS011;38666;43.348;12.584;2022-07-23T12:13:10;8.38;;;2.00;;
52796;SDS011;38666;43.348;12.584;2022-07-23T12:18:07;3.67;;;1.70;;
52796;SDS011;38666;43.348;12.584;2022-07-23T12:20:40;3.80;;;1.70;;
52796;SDS011;38666;43.348;12.584;2022-07-23T12:23:09;7.63;;;1.90;;
52796;SDS011;38666;43.348;12.584;2022-07-23T12:25:39;7.90;;;2.03;;
52796;SDS011;38666;43.348;12.584;2022-07-23T12:28:07;5.47;;;1.60;;
52796;SDS011;38666;43.348;12.584;2022-07-23T12:33:09;6.67;;;1.87;;
52796;SDS011;38666;43.348;12.584;2022-07-23T12:35:38;6.20;;;1.57;;
52796;SDS011;38666;43.348;12.584;2022-07-23T12:38:10;11.40;;;1.70;;
52796;SDS011;38666;43.348;12.584;2022-07-23T12:43:09;9.00;;;1.40;;
52796;SDS011;38666;43.348;12.584;2022-07-23T12:48:08;3.60;;;1.63;;
52796;SDS011;38666;43.348;12.584;2022-07-23T12:53:16;4.38;;;1.77;;
52796;SDS011;38666;43.348;12.584;2022-07-23T12:55:49;5.68;;;1.80;;
52796;SDS011;38666;43.348;12.584;2022-07-23T12:58:19;11.32;;;1.95;;
52796;SDS011;38666;43.348;12.584;2022-07-23T13:01:04;4.25;;;1.50;;
52796;SDS011;38666;43.348;12.584;2022-07-23T13:03:37;6.43;;;1.88;;
52796;SDS011;38666;43.348;12.584;2022-07-23T13:06:07;6.03;;;1.70;;
52796;SDS011;38666;43.348;12.584;2022-07-23T13:08:35;5.67;;;1.63;;
52796;SDS011;38666;43.348;12.584;2022-07-23T13:11:03;10.05;;;1.88;;
52796;SDS011;38666;43.348;12.584;2022-07-23T13:13:30;9.90;;;1.88;;
52796;SDS011;38666;43.348;12.584;2022-07-23T13:15:59;4.45;;;1.40;;
52796;SDS011;38666;43.348;12.584;2022-07-23T13:18:25;7.20;;;1.88;;
52796;SDS011;38666;43.348;12.584;2022-07-23T13:20:52;4.18;;;1.42;;
52796;SDS011;38666;43.348;12.584;2022-07-23T13:23:18;5.93;;;2.10;;
52796;SDS011;38666;43.348;12.584;2022-07-23T13:25:44;10.52;;;1.67;;
52796;SDS011;38666;43.348;12.584;2022-07-23T13:28:11;12.95;;;1.92;;
52796;SDS011;38666;43.348;12.584;2022-07-23T13:30:37;6.75;;;2.30;;
52796;SDS011;38666;43.348;12.584;2022-07-23T13:33:03;6.88;;;1.95;;
52796;SDS011;38666;43.348;12.584;2022-07-23T13:35:29;6.33;;;1.60;;
52796;SDS011;38666;43.348;12.584;2022-07-23T13:37:55;5.10;;;1.80;;
52796;SDS011;38666;43.348;12.584;2022-07-23T13:40:22;7.17;;;2.10;;
52796;SDS011;38666;43.348;12.584;2022-07-23T13:42:47;5.27;;;1.53;;
52796;SDS011;38666;43.348;12.584;2022-07-23T13:45:13;3.60;;;1.53;;
52796;SDS011;38666;43.348;12.584;2022-07-23T13:47:38;8.63;;;1.97;;
52796;SDS011;38666;43.348;12.584;2022-07-23T13:50:04;6.97;;;2.15;;
52796;SDS011;38666;43.348;12.584;2022-07-23T13:52:30;6.45;;;1.58;;
52796;SDS011;38666;43.348;12.584;2022-07-23T13:54:56;4.43;;;1.52;;
52796;SDS011;38666;43.348;12.584;2022-07-23T13:57:22;3.38;;;1.60;;
52796;SDS011;38666;43.348;12.584;2022-07-23T13:59:47;6.90;;;2.38;;
52796;SDS011;38666;43.348;12.584;2022-07-23T14:02:13;6.77;;;1.97;;
52796;SDS011;38666;43.348;12.584;2022-07-23T14:04:41;8.57;;;1.80;;
52796;SDS011;38666;43.348;12.584;2022-07-23T14:07:07;6.70;;;1.83;;
52796;SDS011;38666;43.348;12.584;2022-07-23T14:09:32;3.60;;;1.83;;
52796;SDS011;38666;43.348;12.584;2022-07-23T14:11:59;4.97;;;1.70;;
52796;SDS011;38666;43.348;12.584;2022-07-23T14:14:24;7.10;;;2.03;;
52796;SDS011;38666;43.348;12.584;2022-07-23T14:16:50;7.53;;;2.10;;
52796;SDS011;38666;43.348;12.584;2022-07-23T14:19:15;10.40;;;1.90;;
52796;SDS011;38666;43.348;12.584;2022-07-23T14:21:41;9.17;;;2.20;;
52796;SDS011;38666;43.348;12.584;2022-07-23T14:24:06;7.50;;;2.03;;
52796;SDS011;38666;43.348;12.584;2022-07-23T14:26:32;5.35;;;1.80;;
52796;SDS011;38666;43.348;12.584;2022-07-23T14:28:57;6.30;;;1.77;;
52796;SDS011;38666;43.348;12.584;2022-07-23T14:31:23;7.40;;;2.20;;
52796;SDS011;38666;43.348;12.584;2022-07-23T14:33:48;7.00;;;1.87;;
52796;SDS011;38666;43.348;12.584;2022-07-23T14:36:15;9.35;;;2.20;;
52796;SDS011;38666;43.348;12.584;2022-07-23T14:38:41;3.57;;;1.70;;
52796;SDS011;38666;43.348;12.584;2022-07-23T14:41:07;5.20;;;2.10;;
52796;SDS011;38666;43.348;12.584;2022-07-23T14:43:33;5.90;;;2.20;;
52796;SDS011;38666;43.348;12.584;2022-07-23T14:45:59;6.35;;;2.25;;
52796;SDS011;38666;43.348;12.584;2022-07-23T14:48:25;5.72;;;2.10;;
52796;SDS011;38666;43.348;12.584;2022-07-23T14:50:50;9.85;;;1.95;;
52796;SDS011;38666;43.348;12.584;2022-07-23T14:53:16;5.07;;;1.83;;
52796;SDS011;38666;43.348;12.584;2022-07-23T14:55:41;5.43;;;1.88;;
52796;SDS011;38666;43.348;12.584;2022-07-23T14:58:07;6.53;;;1.98;;
52796;SDS011;38666;43.348;12.584;2022-07-23T15:00:33;12.53;;;2.37;;
52796;SDS011;38666;43.348;12.584;2022-07-23T15:02:58;4.77;;;2.30;;
52796;SDS011;38666;43.348;12.584;2022-07-23T15:05:23;12.37;;;2.30;;
52796;SDS011;38666;43.348;12.584;2022-07-23T15:07:49;6.67;;;2.47;;
52796;SDS011;38666;43.348;12.584;2022-07-23T15:10:15;13.55;;;2.85;;
52796;SDS011;38666;43.348;12.584;2022-07-23T15:12:41;6.27;;;2.27;;
52796;SDS011;38666;43.348;12.584;2022-07-23T15:15:07;10.13;;;2.53;;
52796;SDS011;38666;43.348;12.584;2022-07-23T15:17:33;7.10;;;2.25;;
52796;SDS011;38666;43.348;12.584;2022-07-23T15:19:59;11.55;;;2.85;;
52796;SDS011;38666;43.348;12.584;2022-07-23T15:22:25;5.47;;;2.57;;
52796;SDS011;38666;43.348;12.584;2022-07-23T15:24:50;6.00;;;2.20;;
52796;SDS011;38666;43.348;12.584;2022-07-23T15:27:16;5.10;;;2.37;;
52796;SDS011;38666;43.348;12.584;2022-07-23T15:29:43;6.43;;;2.20;;
52796;SDS011;38666;43.348;12.584;2022-07-23T15:32:09;11.25;;;2.60;;
52796;SDS011;38666;43.348;12.584;2022-07-23T15:34:35;9.23;;;2.30;;
52796;SDS011;38666;43.348;12.584;2022-07-23T15:37:01;10.05;;;2.25;;
52796;SDS011;38666;43.348;12.584;2022-07-23T15:39:27;9.45;;;2.65;;
52796;SDS011;38666;43.348;12.584;2022-07-23T15:41:53;6.37;;;2.17;;
52796;SDS011;38666;43.348;12.584;2022-07-23T15:44:18;6.40;;;2.30;;
52796;SDS011;38666;43.348;12.584;2022-07-23T15:46:43;5.25;;;2.15;;
52796;SDS011;38666;43.348;12.584;2022-07-23T15:49:09;8.20;;;2.13;;
52796;SDS011;38666;43.348;12.584;2022-07-23T15:51:34;11.63;;;2.30;;
52796;SDS011;38666;43.348;12.584;2022-07-23T15:54:00;7.57;;;2.50;;
52796;SDS011;38666;43.348;12.584;2022-07-23T15:56:25;5.10;;;1.90;;
52796;SDS011;38666;43.348;12.584;2022-07-23T15:58:51;7.03;;;2.53;;
52796;SDS011;38666;43.348;12.584;2022-07-23T16:01:16;6.82;;;2.42;;
52796;SDS011;38666;43.348;12.584;2022-07-23T16:03:42;10.55;;;2.80;;
52796;SDS011;38666;43.348;12.584;2022-07-23T16:06:07;8.88;;;2.42;;
52796;SDS011;38666;43.348;12.584;2022-07-23T16:08:33;7.90;;;2.60;;
52796;SDS011;38666;43.348;12.584;2022-07-23T16:10:59;16.38;;;2.92;;
52796;SDS011;38666;43.348;12.584;2022-07-23T16:13:25;12.27;;;3.43;;
52796;SDS011;38666;43.348;12.584;2022-07-23T16:15:51;9.57;;;2.20;;
52796;SDS011;38666;43.348;12.584;2022-07-23T16:18:19;7.30;;;2.70;;
52796;SDS011;38666;43.348;12.584;2022-07-23T16:20:47;7.70;;;2.80;;
52796;SDS011;38666;43.348;12.584;2022-07-23T16:23:14;13.25;;;2.63;;
52796;SDS011;38666;43.348;12.584;2022-07-23T16:25:39;5.03;;;2.50;;
52796;SDS011;38666;43.348;12.584;2022-07-23T16:28:06;10.70;;;2.57;;
52796;SDS011;38666;43.348;12.584;2022-07-23T16:30:32;7.07;;;2.78;;
52796;SDS011;38666;43.348;12.584;2022-07-23T16:32:59;7.27;;;2.80;;
52796;SDS011;38666;43.348;12.584;2022-07-23T16:35:25;7.90;;;2.60;;
52796;SDS011;38666;43.348;12.584;2022-07-23T16:37:50;16.53;;;2.90;;
52796;SDS011;38666;43.348;12.584;2022-07-23T16:40:16;6.90;;;2.47;;
52796;SDS011;38666;43.348;12.584;2022-07-23T16:42:42;17.20;;;2.73;;
52796;SDS011;38666;43.348;12.584;2022-07-23T16:45:07;14.97;;;3.00;;
52796;SDS011;38666;43.348;12.584;2022-07-23T16:47:34;12.03;;;2.53;;
52796;SDS011;38666;43.348;12.584;2022-07-23T16:50:00;7.40;;;2.53;;
52796;SDS011;38666;43.348;12.584;2022-07-23T16:52:26;11.30;;;2.57;;
52796;SDS011;38666;43.348;12.584;2022-07-23T16:54:52;14.02;;;2.95;;
52796;SDS011;38666;43.348;12.584;2022-07-23T16:57:18;9.55;;;2.97;;
52796;SDS011;38666;43.348;12.584;2022-07-23T16:59:43;7.97;;;2.50;;
52796;SDS011;38666;43.348;12.584;2022-07-23T17:02:08;10.43;;;3.10;;
52796;SDS011;38666;43.348;12.584;2022-07-23T17:04:34;6.93;;;2.47;;
52796;SDS011;38666;43.348;12.584;2022-07-23T17:07:00;7.57;;;2.85;;
52796;SDS011;38666;43.348;12.584;2022-07-23T17:09:30;18.13;;;3.13;;
52796;SDS011;38666;43.348;12.584;2022-07-23T17:11:56;7.53;;;3.03;;
52796;SDS011;38666;43.348;12.584;2022-07-23T17:14:22;16.23;;;3.40;;
52796;SDS011;38666;43.348;12.584;2022-07-23T17:16:48;12.87;;;2.80;;
52796;SDS011;38666;43.348;12.584;2022-07-23T17:19:13;8.63;;;2.70;;
52796;SDS011;38666;43.348;12.584;2022-07-23T17:21:38;8.83;;;2.77;;
52796;SDS011;38666;43.348;12.584;2022-07-23T17:24:04;7.67;;;2.60;;
52796;SDS011;38666;43.348;12.584;2022-07-23T17:26:30;7.28;;;2.40;;
52796;SDS011;38666;43.348;12.584;2022-07-23T17:28:58;6.88;;;2.50;;
52796;SDS011;38666;43.348;12.584;2022-07-23T17:31:23;9.38;;;2.92;;
52796;SDS011;38666;43.348;12.584;2022-07-23T17:33:49;5.95;;;2.50;;
52796;SDS011;38666;43.348;12.584;2022-07-23T17:36:15;5.63;;;2.35;;
52796;SDS011;38666;43.348;12.584;2022-07-23T17:38:40;12.17;;;2.37;;
52796;SDS011;38666;43.348;12.584;2022-07-23T17:41:06;10.50;;;2.97;;
52796;SDS011;38666;43.348;12.584;2022-07-23T17:43:32;5.88;;;2.85;;
52796;SDS011;38666;43.348;12.584;2022-07-23T17:45:57;11.82;;;4.60;;
52796;SDS011;38666;43.348;12.584;2022-07-23T17:48:23;6.67;;;3.13;;
52796;SDS011;38666;43.348;12.584;2022-07-23T17:50:50;8.75;;;3.22;;
52796;SDS011;38666;43.348;12.584;2022-07-23T17:53:16;15.60;;;6.70;;
52796;SDS011;38666;43.348;12.584;2022-07-23T17:55:41;16.30;;;5.30;;
52796;SDS011;38666;43.348;12.584;2022-07-23T17:58:07;10.30;;;3.63;;
52796;SDS011;38666;43.348;12.584;2022-07-23T18:00:33;10.00;;;3.00;;
52796;SDS011;38666;43.348;12.584;2022-07-23T18:03:00;13.82;;;3.63;;
52796;SDS011;38666;43.348;12.584;2022-07-23T18:05:26;10.60;;;2.72;;
52796;SDS011;38666;43.348;12.584;2022-07-23T18:07:52;7.87;;;2.43;;
52796;SDS011;38666;43.348;12.584;2022-07-23T18:10:18;13.02;;;3.25;;
52796;SDS011;38666;43.348;12.584;2022-07-23T18:12:44;14.25;;;4.47;;
52796;SDS011;38666;43.348;12.584;2022-07-23T18:15:09;7.25;;;3.53;;
52796;SDS011;38666;43.348;12.584;2022-07-23T18:17:35;7.88;;;3.35;;
52796;SDS011;38666;43.348;12.584;2022-07-23T18:20:03;17.85;;;7.93;;
52796;SDS011;38666;43.348;12.584;2022-07-23T18:22:29;11.63;;;2.78;;
52796;SDS011;38666;43.348;12.584;2022-07-23T18:24:55;9.90;;;3.25;;
52796;SDS011;38666;43.348;12.584;2022-07-23T18:27:20;5.30;;;2.50;;
52796;SDS011;38666;43.348;12.584;2022-07-23T18:29:46;5.80;;;2.70;;
52796;SDS011;38666;43.348;12.584;2022-07-23T18:32:12;9.40;;;2.73;;
52796;SDS011;38666;43.348;12.584;2022-07-23T18:34:37;10.57;;;2.53;;
52796;SDS011;38666;43.348;12.584;2022-07-23T18:37:03;8.20;;;2.60;;
52796;SDS011;38666;43.348;12.584;2022-07-23T18:39:28;13.37;;;3.00;;
52796;SDS011;38666;43.348;12.584;2022-07-23T18:41:55;7.13;;;3.30;;
52796;SDS011;38666;43.348;12.584;2022-07-23T18:44:21;6.38;;;2.58;;
52796;SDS011;38666;43.348;12.584;2022-07-23T18:46:46;9.65;;;2.83;;
52796;SDS011;38666;43.348;12.584;2022-07-23T18:49:11;10.82;;;2.95;;
52796;SDS011;38666;43.348;12.584;2022-07-23T18:51:37;9.03;;;2.87;;
